Time;durP1;ratioP1;P1;durP2;ratioP2;P2;SDS_P1;SDS_P2;PMS_P1;PMS_P2;Temp;Humidity;BMP_temperature;BMP_pressure;BME280_temperature;BME280_humidity;BME280_pressure;Samples;Min_cycle;Max_cycle;Signal;HPM_P1;HPM_P2
2023/07/20 00:00:53;;;;;;;4.93;4.43;;;22.90;48.10;;;;;;5074729;28;20188;-52
2023/07/20 00:03:23;;;;;;;10.10;5.50;;;22.90;48.20;;;;;;5075110;28;20196;-52
2023/07/20 00:05:49;;;;;;;5.83;5.23;;;22.90;48.20;;;;;;5074831;28;20456;-52
2023/07/20 00:08:17;;;;;;;6.97;5.27;;;22.90;48.30;;;;;;5074754;28;20462;-52
2023/07/20 00:10:43;;;;;;;5.63;5.00;;;22.80;48.40;;;;;;5074229;28;20431;-53
2023/07/20 00:13:12;;;;;;;8.47;4.97;;;22.90;48.60;;;;;;5074590;28;20488;-52
2023/07/20 00:15:38;;;;;;;6.80;5.07;;;22.80;48.60;;;;;;5074730;28;20411;-52
2023/07/20 00:18:05;;;;;;;8.10;5.13;;;22.90;48.80;;;;;;5073427;28;20411;-52
2023/07/20 00:20:32;;;;;;;6.10;5.50;;;22.90;48.70;;;;;;5074198;28;20485;-49
2023/07/20 00:22:58;;;;;;;7.13;4.47;;;22.90;48.50;;;;;;5074442;28;20438;-52
2023/07/20 00:25:25;;;;;;;11.20;4.00;;;22.90;48.60;;;;;;5074709;28;20528;-50
2023/07/20 00:27:51;;;;;;;9.70;4.13;;;22.90;48.70;;;;;;5074411;28;20460;-52
2023/07/20 00:30:17;;;;;;;6.17;4.30;;;22.90;48.70;;;;;;5074020;28;20461;-52
2023/07/20 00:32:43;;;;;;;5.53;5.03;;;22.90;48.70;;;;;;5074603;28;20434;-50
2023/07/20 00:35:09;;;;;;;7.47;3.77;;;22.90;48.80;;;;;;5074275;28;20408;-52
2023/07/20 00:37:35;;;;;;;4.33;3.90;;;22.90;49.00;;;;;;5074107;28;20415;-52
2023/07/20 00:40:04;;;;;;;7.20;4.43;;;22.90;49.10;;;;;;5074045;28;20431;-52
2023/07/20 00:42:30;;;;;;;6.27;4.00;;;22.90;48.80;;;;;;5074378;28;20442;-50
2023/07/20 00:44:56;;;;;;;4.47;3.47;;;22.90;48.60;;;;;;5074361;28;20421;-51
2023/07/20 00:47:22;;;;;;;3.90;3.47;;;22.90;48.60;;;;;;5073901;28;20811;-52
2023/07/20 00:49:48;;;;;;;4.63;3.97;;;22.90;48.60;;;;;;5073621;28;20474;-50
2023/07/20 00:52:15;;;;;;;5.77;3.90;;;22.90;48.90;;;;;;5073853;28;20407;-52
2023/07/20 00:54:41;;;;;;;5.60;4.10;;;22.90;49.20;;;;;;5073859;28;20505;-52
2023/07/20 00:57:08;;;;;;;4.83;3.40;;;22.90;49.10;;;;;;5073842;28;20419;-51
2023/07/20 00:59:36;;;;;;;5.00;3.50;;;22.90;48.80;;;;;;5073739;28;20423;-51
2023/07/20 01:02:03;;;;;;;4.70;3.17;;;22.90;49.00;;;;;;5073702;28;20406;-52
2023/07/20 01:04:29;;;;;;;3.67;2.87;;;22.90;49.00;;;;;;5073727;28;20403;-50
2023/07/20 01:07:02;;;;;;;4.77;3.20;;;22.90;49.10;;;;;;5073422;28;20482;-52
2023/07/20 01:09:43;;;;;;;3.70;3.10;;;23.00;49.10;;;;;;5073509;28;20407;-52
2023/07/20 01:12:21;;;;;;;3.80;3.33;;;22.90;49.30;;;;;;5073679;28;20480;-52
2023/07/20 01:14:47;;;;;;;6.67;3.93;;;23.00;48.90;;;;;;5073375;28;20900;-52
2023/07/20 01:17:13;;;;;;;4.10;3.13;;;22.90;48.90;;;;;;5073339;28;20458;-51
2023/07/20 01:19:39;;;;;;;7.40;3.20;;;22.90;49.10;;;;;;5073101;28;20508;-52
2023/07/20 01:22:23;;;;;;;4.50;2.97;;;22.90;49.10;;;;;;5073046;28;20188;-51
2023/07/20 01:25:07;;;;;;;5.73;2.97;;;23.00;49.10;;;;;;5073279;28;20177;-51
2023/07/20 01:27:33;;;;;;;5.70;3.33;;;23.00;49.00;;;;;;5073151;28;20508;-52
2023/07/20 01:30:34;;;;;;;3.37;2.77;;;23.00;48.70;;;;;;5072751;28;20431;-52
2023/07/20 01:33:01;;;;;;;4.53;2.67;;;23.00;48.40;;;;;;5072736;28;20191;-52
2023/07/20 01:35:30;;;;;;;4.17;2.60;;;22.90;48.60;;;;;;5073090;28;20478;-51
2023/07/20 01:37:58;;;;;;;2.63;2.10;;;22.90;48.60;;;;;;5073032;28;20398;-51
2023/07/20 01:40:25;;;;;;;3.70;2.80;;;22.90;48.20;;;;;;5072622;28;20430;-51
2023/07/20 01:42:51;;;;;;;4.40;2.20;;;22.90;48.30;;;;;;5072907;28;20496;-51
2023/07/20 01:45:17;;;;;;;4.40;2.40;;;22.90;48.20;;;;;;5072844;28;20414;-51
2023/07/20 01:47:43;;;;;;;3.67;2.70;;;22.80;47.90;;;;;;5072838;28;20455;-51
2023/07/20 01:50:09;;;;;;;11.00;3.30;;;22.80;48.20;;;;;;5072611;28;20510;-51
2023/07/20 01:52:35;;;;;;;2.70;2.10;;;22.80;48.20;;;;;;5072725;28;20171;-51
2023/07/20 01:55:01;;;;;;;4.00;3.40;;;22.80;48.20;;;;;;5072751;28;20763;-51
2023/07/20 01:57:27;;;;;;;5.40;2.70;;;22.80;48.10;;;;;;5073012;28;20491;-51
2023/07/20 01:59:53;;;;;;;3.67;2.37;;;22.80;48.10;;;;;;5072639;28;20501;-51
2023/07/20 02:02:20;;;;;;;3.20;2.50;;;22.70;47.90;;;;;;5072742;28;20675;-52
2023/07/20 02:04:46;;;;;;;2.80;2.47;;;22.70;47.90;;;;;;5072522;28;20173;-52
2023/07/20 02:07:12;;;;;;;4.67;2.33;;;22.60;47.70;;;;;;5072415;28;21001;-52
2023/07/20 02:09:37;;;;;;;3.27;2.30;;;22.60;47.70;;;;;;5072274;28;20195;-54
2023/07/20 02:12:03;;;;;;;5.80;2.50;;;22.60;47.80;;;;;;5072544;28;20173;-52
2023/07/20 02:14:29;;;;;;;6.23;3.00;;;22.60;47.80;;;;;;5072304;28;20556;-52
2023/07/20 02:16:57;;;;;;;8.17;2.70;;;22.50;47.80;;;;;;5072626;28;20411;-53
2023/07/20 02:19:26;;;;;;;3.27;2.77;;;22.50;47.80;;;;;;5072056;28;20187;-53
2023/07/20 02:21:52;;;;;;;3.70;3.40;;;22.50;48.00;;;;;;5072185;28;20457;-51
2023/07/20 02:24:18;;;;;;;6.53;2.53;;;22.50;47.90;;;;;;5072490;28;20422;-51
2023/07/20 02:26:43;;;;;;;8.33;2.63;;;22.50;48.00;;;;;;5072052;28;20675;-53
2023/07/20 02:29:11;;;;;;;4.20;2.90;;;22.40;48.00;;;;;;5070818;28;20448;-51
2023/07/20 02:31:39;;;;;;;3.43;2.47;;;22.40;48.10;;;;;;5071982;28;20434;-51
2023/07/20 02:34:05;;;;;;;4.37;3.03;;;22.40;48.40;;;;;;5071256;28;20456;-53
2023/07/20 02:36:32;;;;;;;5.00;3.50;;;22.40;48.40;;;;;;5072061;28;20445;-50
2023/07/20 02:38:58;;;;;;;4.33;3.00;;;22.40;48.70;;;;;;5071963;28;20460;-53
2023/07/20 02:41:25;;;;;;;3.93;3.57;;;22.40;48.80;;;;;;5071947;28;20471;-53
2023/07/20 02:43:50;;;;;;;5.13;3.63;;;22.40;48.80;;;;;;5072047;28;20450;-50
2023/07/20 02:46:16;;;;;;;6.80;4.00;;;22.40;48.50;;;;;;5072083;28;20438;-53
2023/07/20 02:48:42;;;;;;;3.97;3.50;;;22.40;48.40;;;;;;5071932;28;20212;-51
2023/07/20 02:51:09;;;;;;;3.60;3.10;;;22.40;48.40;;;;;;5071669;28;20193;-53
2023/07/20 02:53:35;;;;;;;4.03;3.13;;;22.40;48.30;;;;;;5071932;28;20168;-51
2023/07/20 02:56:01;;;;;;;6.90;3.40;;;22.40;48.40;;;;;;5072068;28;20816;-51
2023/07/20 02:58:27;;;;;;;9.30;3.37;;;22.40;48.30;;;;;;5071986;28;20964;-54
2023/07/20 03:00:52;;;;;;;6.00;2.97;;;22.40;48.20;;;;;;5071633;28;20227;-50
2023/07/20 03:03:18;;;;;;;3.87;3.47;;;22.40;48.40;;;;;;5071813;28;20526;-51
2023/07/20 03:05:44;;;;;;;5.90;3.30;;;22.30;48.30;;;;;;5071722;28;20226;-53
2023/07/20 03:08:10;;;;;;;5.80;3.90;;;22.30;48.40;;;;;;5071656;28;20258;-51
2023/07/20 03:10:43;;;;;;;13.63;3.90;;;22.30;48.30;;;;;;5071506;28;20271;-53
2023/07/20 03:13:08;;;;;;;3.50;3.17;;;22.40;48.30;;;;;;5071752;28;20208;-51
2023/07/20 03:15:34;;;;;;;5.70;4.00;;;22.30;48.20;;;;;;5071750;28;20905;-53
2023/07/20 03:18:00;;;;;;;4.33;3.93;;;22.30;48.00;;;;;;5071698;28;20250;-51
2023/07/20 03:20:26;;;;;;;6.77;4.20;;;22.30;48.00;;;;;;5071386;28;20200;-51
2023/07/20 03:22:52;;;;;;;3.53;3.23;;;22.30;48.00;;;;;;5071867;28;20234;-52
2023/07/20 03:25:17;;;;;;;5.70;3.60;;;22.30;47.90;;;;;;5071673;28;20687;-51
2023/07/20 03:27:44;;;;;;;4.33;3.40;;;22.20;47.90;;;;;;5071553;28;20205;-51
2023/07/20 03:30:10;;;;;;;5.57;4.63;;;22.30;48.10;;;;;;5071410;28;20220;-52
2023/07/20 03:32:36;;;;;;;5.73;4.93;;;22.20;48.00;;;;;;5071463;28;20541;-49
2023/07/20 03:35:02;;;;;;;4.67;4.27;;;22.10;48.30;;;;;;5070241;28;21006;-53
2023/07/20 03:37:28;;;;;;;12.37;4.70;;;22.20;48.50;;;;;;5071500;28;20460;-51
2023/07/20 03:39:54;;;;;;;7.47;4.40;;;22.10;48.50;;;;;;5071281;28;20461;-51
2023/07/20 03:42:20;;;;;;;4.37;3.93;;;22.10;49.20;;;;;;5071478;28;20185;-51
2023/07/20 03:44:45;;;;;;;6.10;4.10;;;22.10;48.50;;;;;;5072035;28;20177;-51
2023/07/20 03:47:11;;;;;;;4.73;4.07;;;22.10;48.70;;;;;;5075390;28;20204;-51
2023/07/20 03:49:37;;;;;;;4.67;3.97;;;22.10;48.70;;;;;;5075064;28;20219;-53
2023/07/20 03:52:04;;;;;;;5.57;4.80;;;22.10;49.00;;;;;;5075052;28;20906;-53
2023/07/20 03:54:30;;;;;;;11.67;5.57;;;22.20;49.10;;;;;;5075077;28;20428;-51
2023/07/20 03:56:55;;;;;;;7.97;5.00;;;22.20;49.10;;;;;;5075050;28;20407;-51
2023/07/20 03:59:21;;;;;;;9.27;5.70;;;22.20;49.10;;;;;;5074653;28;20544;-53
2023/07/20 04:01:47;;;;;;;6.87;6.17;;;22.20;49.30;;;;;;5074721;28;20208;-51
2023/07/20 04:04:16;;;;;;;7.30;5.37;;;22.20;49.30;;;;;;5074835;28;20180;-51
2023/07/20 04:06:44;;;;;;;6.20;5.23;;;22.20;49.30;;;;;;5074658;28;20446;-53
2023/07/20 04:09:11;;;;;;;7.77;5.23;;;22.20;49.20;;;;;;5074611;28;20414;-51
2023/07/20 04:11:36;;;;;;;8.93;6.17;;;22.30;49.20;;;;;;5074524;28;20948;-53
2023/07/20 04:14:02;;;;;;;7.03;5.93;;;22.20;49.10;;;;;;5074716;28;20452;-53
2023/07/20 04:16:28;;;;;;;7.47;6.20;;;22.20;49.00;;;;;;5074622;28;20509;-50
2023/07/20 04:18:57;;;;;;;8.93;6.73;;;22.30;49.30;;;;;;5074472;28;20414;-50
2023/07/20 04:21:25;;;;;;;11.87;6.77;;;22.30;49.20;;;;;;5074184;28;20224;-53
2023/07/20 04:23:51;;;;;;;11.03;7.53;;;22.30;49.20;;;;;;5074454;28;20771;-52
2023/07/20 04:26:17;;;;;;;7.63;6.80;;;22.30;49.30;;;;;;5074718;28;20422;-51
2023/07/20 04:28:43;;;;;;;7.50;6.80;;;22.40;49.60;;;;;;5074331;28;20621;-53
2023/07/20 04:31:15;;;;;;;6.93;6.23;;;22.40;49.70;;;;;;5073954;28;20200;-53
2023/07/20 04:33:42;;;;;;;8.50;7.63;;;22.50;49.80;;;;;;5074331;28;20403;-50
2023/07/20 04:36:09;;;;;;;7.70;6.47;;;22.50;49.60;;;;;;5074365;28;20430;-52
2023/07/20 04:38:35;;;;;;;7.97;6.23;;;22.50;49.50;;;;;;5074271;28;20915;-53
2023/07/20 04:41:00;;;;;;;6.23;5.47;;;22.50;49.30;;;;;;5073977;28;20435;-50
2023/07/20 04:43:29;;;;;;;8.90;6.13;;;22.50;49.10;;;;;;5074124;28;20418;-52
2023/07/20 04:45:55;;;;;;;11.23;7.20;;;22.50;48.70;;;;;;5072850;28;20176;-52
2023/07/20 04:48:21;;;;;;;7.90;6.33;;;22.50;49.10;;;;;;5073943;28;20450;-50
2023/07/20 04:50:47;;;;;;;15.47;7.80;;;22.50;49.40;;;;;;5073777;28;20196;-52
2023/07/20 04:53:13;;;;;;;8.57;6.67;;;22.50;49.60;;;;;;5073957;28;20176;-52
2023/07/20 04:55:40;;;;;;;12.90;7.60;;;22.50;49.50;;;;;;5073962;28;20591;-50
2023/07/20 04:58:06;;;;;;;8.53;6.67;;;22.60;49.60;;;;;;5072851;28;20502;-52
2023/07/20 05:00:38;;;;;;;7.53;6.70;;;22.60;49.70;;;;;;5073690;28;20457;-52
2023/07/20 05:03:05;;;;;;;11.77;8.20;;;22.60;49.70;;;;;;5073885;28;20464;-52
2023/07/20 05:05:31;;;;;;;17.13;8.70;;;22.60;49.30;;;;;;5073608;28;20419;-53
2023/07/20 05:07:57;;;;;;;9.63;8.63;;;22.60;48.80;;;;;;5073842;28;20455;-50
2023/07/20 05:10:24;;;;;;;8.83;7.93;;;22.60;49.10;;;;;;5072117;28;20508;-53
2023/07/20 05:12:49;;;;;;;13.03;7.40;;;22.70;49.40;;;;;;5073358;28;20201;-51
2023/07/20 05:15:15;;;;;;;10.90;8.00;;;22.70;48.80;;;;;;5073787;28;20553;-51
2023/07/20 05:17:41;;;;;;;17.10;8.73;;;22.70;48.70;;;;;;5073416;28;20899;-53
2023/07/20 05:20:09;;;;;;;12.70;8.53;;;22.70;48.80;;;;;;5071816;28;20438;-51
2023/07/20 05:22:39;;;;;;;16.83;8.93;;;22.70;49.10;;;;;;5073314;28;20460;-50
2023/07/20 05:25:07;;;;;;;8.33;7.53;;;22.70;49.10;;;;;;5073514;28;20411;-50
2023/07/20 05:27:34;;;;;;;15.87;8.60;;;22.70;48.80;;;;;;5073116;28;20466;-52
2023/07/20 05:30:00;;;;;;;16.17;7.93;;;22.70;49.00;;;;;;5072944;28;20461;-50
2023/07/20 05:32:26;;;;;;;9.73;6.80;;;22.70;49.40;;;;;;5073286;28;20469;-50
2023/07/20 05:34:54;;;;;;;17.13;8.10;;;22.70;49.20;;;;;;5073056;28;20406;-52
2023/07/20 05:37:20;;;;;;;8.60;7.67;;;22.80;49.50;;;;;;5073302;28;20272;-52
2023/07/20 05:39:46;;;;;;;11.27;7.83;;;22.80;49.80;;;;;;5072636;28;20454;-51
2023/07/20 05:42:12;;;;;;;11.17;7.40;;;22.90;49.80;;;;;;5072884;28;20967;-53
2023/07/20 05:44:39;;;;;;;12.67;7.30;;;23.00;49.80;;;;;;5072952;28;20415;-53
2023/07/20 05:47:05;;;;;;;11.90;7.77;;;23.00;49.30;;;;;;5072734;28;20457;-51
2023/07/20 05:49:31;;;;;;;8.83;6.57;;;23.10;49.10;;;;;;5072510;28;20411;-53
2023/07/20 05:51:57;;;;;;;11.97;7.70;;;23.10;49.10;;;;;;5072753;28;20908;-51
2023/07/20 05:54:25;;;;;;;9.27;7.00;;;23.00;49.10;;;;;;5072707;28;20251;-51
2023/07/20 05:56:51;;;;;;;7.27;6.57;;;23.10;49.00;;;;;;5072633;28;20972;-53
2023/07/20 05:59:17;;;;;;;8.90;6.30;;;23.00;48.60;;;;;;5072566;28;20411;-53
2023/07/20 06:01:44;;;;;;;11.13;5.67;;;23.00;48.70;;;;;;5072539;28;20184;-50
2023/07/20 06:04:09;;;;;;;8.57;6.47;;;23.00;48.90;;;;;;5072561;28;20168;-53
2023/07/20 06:06:35;;;;;;;13.53;8.13;;;23.00;49.10;;;;;;5072419;28;20502;-50
2023/07/20 06:09:05;;;;;;;9.43;7.63;;;23.00;48.90;;;;;;5072181;28;20169;-51
2023/07/20 06:11:31;;;;;;;6.87;5.80;;;23.00;48.30;;;;;;5072513;28;20212;-53
2023/07/20 06:13:57;;;;;;;8.70;7.30;;;22.90;48.40;;;;;;5072403;28;20422;-53
2023/07/20 06:16:23;;;;;;;10.63;8.30;;;22.90;48.80;;;;;;5072668;28;20476;-51
2023/07/20 06:18:49;;;;;;;8.83;7.57;;;22.90;48.70;;;;;;5072522;28;20501;-51
2023/07/20 06:21:14;;;;;;;8.77;7.80;;;22.80;48.50;;;;;;5072029;28;20346;-52
2023/07/20 06:23:41;;;;;;;6.63;5.90;;;22.80;48.60;;;;;;5070980;28;20196;-53
2023/07/20 06:26:07;;;;;;;8.53;6.30;;;22.80;48.60;;;;;;5072414;28;20183;-51
2023/07/20 06:28:33;;;;;;;6.30;5.00;;;22.90;48.60;;;;;;5072078;28;20465;-52
2023/07/20 06:31:03;;;;;;;7.87;5.07;;;22.90;48.10;;;;;;5071782;28;20430;-53
2023/07/20 06:33:30;;;;;;;9.43;4.70;;;22.90;48.00;;;;;;5072203;28;20414;-53
2023/07/20 06:35:56;;;;;;;6.30;5.30;;;22.90;48.10;;;;;;5072297;28;20414;-50
2023/07/20 06:38:23;;;;;;;8.23;4.70;;;22.90;47.70;;;;;;5072364;28;20443;-53
2023/07/20 06:40:49;;;;;;;6.93;4.70;;;23.00;47.30;;;;;;5072011;28;20438;-54
2023/07/20 06:43:16;;;;;;;8.17;5.50;;;22.90;47.10;;;;;;5072108;28;20403;-51
2023/07/20 06:45:42;;;;;;;9.10;5.33;;;22.90;47.90;;;;;;5072316;28;20437;-50
2023/07/20 06:48:08;;;;;;;5.97;4.37;;;22.80;48.20;;;;;;5072105;28;20992;-54
2023/07/20 06:50:34;;;;;;;6.13;5.07;;;22.80;48.60;;;;;;5071566;28;20823;-53
2023/07/20 06:53:00;;;;;;;6.93;4.90;;;22.80;48.80;;;;;;5071955;28;20407;-51
2023/07/20 06:55:26;;;;;;;9.00;5.27;;;22.70;48.80;;;;;;5072087;28;20188;-53
2023/07/20 06:57:52;;;;;;;7.97;5.60;;;22.60;48.50;;;;;;5072025;28;20775;-53
2023/07/20 07:00:18;;;;;;;5.97;5.37;;;22.60;48.60;;;;;;5071538;28;20522;-50
2023/07/20 07:02:44;;;;;;;6.40;5.80;;;22.60;48.90;;;;;;5071900;28;20184;-53
2023/07/20 07:05:10;;;;;;;4.80;4.40;;;22.60;49.30;;;;;;5071790;28;20418;-50
2023/07/20 07:07:36;;;;;;;7.00;4.97;;;22.60;49.10;;;;;;5071949;28;20245;-51
2023/07/20 07:10:05;;;;;;;7.70;5.43;;;22.60;49.00;;;;;;5071438;28;20192;-53
2023/07/20 07:12:30;;;;;;;7.23;6.30;;;22.60;49.30;;;;;;5071971;28;20399;-51
2023/07/20 07:14:57;;;;;;;7.33;4.80;;;22.60;49.30;;;;;;5071696;28;20646;-51
2023/07/20 07:17:23;;;;;;;7.73;5.83;;;22.70;49.60;;;;;;5071668;28;20652;-54
2023/07/20 07:19:49;;;;;;;5.40;4.67;;;22.80;49.40;;;;;;5072310;28;20492;-50
2023/07/20 07:22:15;;;;;;;8.77;5.50;;;22.80;49.40;;;;;;5075871;28;20410;-53
2023/07/20 07:24:41;;;;;;;5.27;4.87;;;22.90;49.50;;;;;;5075669;28;20417;-50
2023/07/20 07:27:09;;;;;;;5.90;4.87;;;22.90;49.50;;;;;;5075756;28;20520;-54
2023/07/20 07:29:34;;;;;;;6.40;5.50;;;23.00;49.50;;;;;;5075298;28;20442;-52
2023/07/20 07:32:01;;;;;;;5.10;4.60;;;22.60;48.80;;;;;;5075567;28;20439;-52
2023/07/20 07:34:27;;;;;;;6.40;4.67;;;23.10;49.60;;;;;;5075355;28;20559;-54
2023/07/20 07:36:53;;;;;;;9.20;4.40;;;23.20;49.00;;;;;;5075380;28;20410;-51
2023/07/20 07:39:19;;;;;;;6.90;4.13;;;23.20;48.60;;;;;;5075002;28;20412;-52
2023/07/20 07:41:45;;;;;;;5.80;4.00;;;23.20;49.10;;;;;;5075541;28;20461;-54
2023/07/20 07:44:11;;;;;;;5.80;3.93;;;23.30;47.90;;;;;;5075379;28;20918;-52
2023/07/20 07:46:37;;;;;;;6.50;4.53;;;23.30;47.90;;;;;;5075285;28;20414;-54
2023/07/20 07:49:03;;;;;;;10.33;4.50;;;23.40;47.70;;;;;;5074956;28;20407;-52
2023/07/20 07:51:29;;;;;;;4.97;4.43;;;23.40;48.00;;;;;;5073751;28;20469;-51
2023/07/20 07:53:55;;;;;;;7.00;5.10;;;23.40;48.10;;;;;;5075111;28;20918;-54
2023/07/20 07:56:24;;;;;;;6.40;5.70;;;23.50;48.20;;;;;;5075180;28;20406;-51
2023/07/20 07:58:51;;;;;;;5.27;4.80;;;23.60;46.90;;;;;;5074887;28;20177;-54
2023/07/20 08:01:18;;;;;;;6.80;6.10;;;23.70;47.60;;;;;;5074863;28;20430;-52
2023/07/20 08:03:47;;;;;;;7.50;5.90;;;23.70;47.40;;;;;;5074850;28;20511;-51
2023/07/20 08:06:13;;;;;;;10.93;6.37;;;23.70;48.00;;;;;;5074835;28;20407;-54
2023/07/20 08:08:39;;;;;;;7.83;7.00;;;23.90;48.30;;;;;;5074921;28;20458;-52
2023/07/20 08:11:05;;;;;;;8.57;7.70;;;24.00;48.40;;;;;;5074449;28;20992;-51
2023/07/20 08:13:32;;;;;;;8.83;6.77;;;24.10;46.90;;;;;;5074650;28;20203;-53
2023/07/20 08:15:58;;;;;;;8.37;7.60;;;24.30;46.60;;;;;;5074588;28;20425;-51
2023/07/20 08:18:24;;;;;;;7.53;6.50;;;24.30;46.60;;;;;;5074662;28;20409;-51
2023/07/20 08:20:50;;;;;;;9.63;6.70;;;24.40;46.80;;;;;;5074196;28;20438;-53
2023/07/20 08:23:16;;;;;;;7.87;7.17;;;24.30;45.70;;;;;;5074817;28;20406;-53
2023/07/20 08:25:45;;;;;;;8.53;7.83;;;24.20;45.00;;;;;;5074550;28;20656;-51
2023/07/20 08:28:13;;;;;;;8.40;7.70;;;24.20;45.00;;;;;;5074383;28;20521;-51
2023/07/20 08:30:44;;;;;;;8.43;7.67;;;24.10;45.30;;;;;;5073577;28;20989;-53
2023/07/20 08:33:19;;;;;;;9.67;7.70;;;24.00;46.10;;;;;;5073735;28;20414;-51
2023/07/20 08:35:45;;;;;;;8.70;7.87;;;24.20;46.70;;;;;;5074401;28;20418;-54
2023/07/20 08:38:11;;;;;;;9.80;8.80;;;24.30;45.80;;;;;;5074331;28;20411;-52
2023/07/20 08:40:45;;;;;;;8.23;7.53;;;24.40;46.40;;;;;;5073985;28;20435;-52
2023/07/20 08:43:12;;;;;;;10.77;9.77;;;24.60;45.10;;;;;;5074171;28;20803;-53
2023/07/20 08:45:39;;;;;;;12.70;8.67;;;24.70;43.40;;;;;;5074107;28;20403;-51
2023/07/20 08:48:09;;;;;;;8.60;7.80;;;24.80;44.10;;;;;;5074045;28;20455;-54
2023/07/20 08:50:35;;;;;;;9.53;8.37;;;24.90;45.00;;;;;;5073718;28;20450;-51
2023/07/20 08:53:02;;;;;;;7.60;6.80;;;25.00;44.40;;;;;;5074278;28;20756;-54
2023/07/20 08:55:29;;;;;;;7.90;6.97;;;25.10;43.40;;;;;;5074186;28;20464;-54
2023/07/20 08:57:56;;;;;;;9.70;8.73;;;25.30;42.00;;;;;;5073864;28;20411;-52
2023/07/20 09:00:24;;;;;;;8.27;7.47;;;25.30;42.00;;;;;;5073481;28;20426;-52
2023/07/20 09:02:51;;;;;;;6.80;5.87;;;25.40;41.70;;;;;;5073958;28;20425;-53
2023/07/20 09:05:18;;;;;;;8.67;6.70;;;25.60;40.30;;;;;;5073821;28;20414;-53
2023/07/20 09:07:44;;;;;;;9.13;6.80;;;25.70;40.60;;;;;;5073838;28;20913;-51
2023/07/20 09:10:11;;;;;;;7.07;6.47;;;25.70;41.10;;;;;;5073355;28;20473;-53
2023/07/20 09:12:39;;;;;;;6.73;6.03;;;25.70;41.10;;;;;;5073726;28;20501;-53
2023/07/20 09:15:06;;;;;;;6.73;6.10;;;25.60;40.00;;;;;;5073558;28;20533;-53
2023/07/20 09:17:32;;;;;;;9.70;6.83;;;25.50;39.50;;;;;;5072341;28;20425;-54
2023/07/20 09:19:58;;;;;;;6.53;5.67;;;25.40;39.40;;;;;;5073420;28;20435;-54
2023/07/20 09:22:31;;;;;;;6.33;5.73;;;25.30;40.20;;;;;;5073738;28;20918;-51
2023/07/20 09:24:57;;;;;;;6.67;6.13;;;25.30;40.30;;;;;;5073348;28;20409;-53
2023/07/20 09:27:36;;;;;;;6.37;5.77;;;25.40;40.80;;;;;;5073275;28;20499;-53
2023/07/20 09:30:03;;;;;;;5.87;5.13;;;25.50;40.40;;;;;;5073095;28;20430;-51
2023/07/20 09:32:29;;;;;;;5.57;4.87;;;25.60;39.80;;;;;;5073249;28;20486;-52
2023/07/20 09:34:55;;;;;;;7.03;5.73;;;25.60;39.40;;;;;;5073130;28;20486;-51
2023/07/20 09:37:24;;;;;;;6.03;5.53;;;25.60;40.00;;;;;;5073271;28;20207;-51
2023/07/20 09:39:56;;;;;;;5.47;5.07;;;25.50;38.50;;;;;;5072968;28;20431;-53
2023/07/20 09:42:22;;;;;;;5.80;5.20;;;25.50;38.10;;;;;;5072583;28;20447;-50
2023/07/20 09:44:48;;;;;;;5.70;5.20;;;25.30;38.50;;;;;;5073091;28;20806;-51
2023/07/20 09:47:25;;;;;;;6.67;5.97;;;25.30;39.40;;;;;;5073173;28;20454;-54
2023/07/20 09:49:59;;;;;;;7.97;7.17;;;25.20;40.20;;;;;;5072480;28;20228;-51
2023/07/20 09:52:26;;;;;;;7.93;6.30;;;25.10;41.20;;;;;;5072802;28;20395;-53
2023/07/20 09:54:52;;;;;;;7.40;6.80;;;25.00;41.80;;;;;;5072765;28;20419;-54
2023/07/20 09:57:18;;;;;;;9.83;6.90;;;24.90;42.50;;;;;;5072653;28;20445;-51
2023/07/20 09:59:44;;;;;;;8.10;6.40;;;24.90;42.30;;;;;;5072261;28;20946;-51
2023/07/20 10:02:24;;;;;;;8.97;8.13;;;24.90;42.80;;;;;;5072526;28;20456;-53
2023/07/20 10:04:53;;;;;;;8.80;7.90;;;24.80;42.90;;;;;;5072653;28;20180;-51
2023/07/20 10:07:22;;;;;;;11.00;9.80;;;24.70;44.30;;;;;;5072502;28;20446;-50
2023/07/20 10:09:51;;;;;;;13.40;9.70;;;24.60;44.50;;;;;;5072470;28;20468;-53
2023/07/20 10:12:19;;;;;;;11.50;9.37;;;24.50;45.10;;;;;;5072537;28;20407;-53
2023/07/20 10:15:06;;;;;;;10.47;9.47;;;24.40;45.70;;;;;;5072131;28;20422;-51
2023/07/20 10:17:32;;;;;;;9.93;9.07;;;24.30;45.90;;;;;;5072839;28;20407;-51
2023/07/20 10:20:03;;;;;;;10.50;9.43;;;24.10;46.70;;;;;;5072126;28;20961;-54
2023/07/20 10:22:34;;;;;;;10.30;9.40;;;24.10;47.80;;;;;;5072459;28;20155;-53
2023/07/20 10:25:01;;;;;;;11.90;9.33;;;24.10;47.70;;;;;;5072335;28;20424;-50
2023/07/20 10:27:27;;;;;;;11.10;10.00;;;24.10;48.00;;;;;;5070864;28;20470;-53
2023/07/20 10:29:55;;;;;;;11.17;10.10;;;24.10;48.30;;;;;;5072013;28;20797;-53
2023/07/20 10:32:21;;;;;;;10.47;9.57;;;24.20;48.40;;;;;;5072303;28;20409;-53
2023/07/20 10:34:56;;;;;;;7.90;7.10;;;24.20;48.10;;;;;;5072023;28;20930;-50
2023/07/20 10:37:49;;;;;;;9.67;8.83;;;24.20;47.10;;;;;;5072218;28;20397;-54
2023/07/20 10:40:28;;;;;;;7.63;7.00;;;24.20;47.70;;;;;;5071822;28;20926;-54
2023/07/20 10:43:06;;;;;;;9.90;9.00;;;24.10;48.00;;;;;;5072161;28;20410;-51
2023/07/20 10:45:38;;;;;;;9.73;8.83;;;24.20;48.90;;;;;;5072382;28;20464;-52
2023/07/20 10:48:27;;;;;;;8.60;7.70;;;24.20;49.30;;;;;;5071818;28;20446;-54
2023/07/20 10:51:29;;;;;;;296.00;264.40;;;24.30;49.20;;;;;;5071174;28;20438;-51
2023/07/20 10:53:58;;;;;;;23.40;21.07;;;24.40;48.70;;;;;;5069212;28;20426;-54
2023/07/20 10:56:30;;;;;;;13.20;12.07;;;24.50;48.30;;;;;;5069167;28;20530;-51
2023/07/20 10:58:59;;;;;;;7.30;6.60;;;24.50;48.60;;;;;;5069468;28;20423;-54
2023/07/20 11:01:30;;;;;;;7.60;6.87;;;24.50;48.40;;;;;;5069258;28;20441;-52
2023/07/20 11:04:00;;;;;;;7.33;6.73;;;24.60;47.30;;;;;;5069652;28;20443;-53
2023/07/20 11:06:25;;;;;;;8.00;6.47;;;24.50;47.30;;;;;;5069474;28;20418;-53
2023/07/20 11:09:10;;;;;;;6.47;5.87;;;24.50;47.00;;;;;;5069251;28;20459;-51
2023/07/20 11:11:38;;;;;;;7.40;6.70;;;24.50;46.90;;;;;;5069212;28;20204;-51
2023/07/20 11:14:09;;;;;;;6.90;6.27;;;24.40;46.90;;;;;;5069304;28;20435;-51
2023/07/20 11:16:41;;;;;;;7.57;6.47;;;24.40;46.40;;;;;;5069461;28;20422;-54
2023/07/20 11:19:16;;;;;;;7.77;7.00;;;24.40;47.40;;;;;;5069193;28;20569;-53
2023/07/20 11:21:43;;;;;;;8.33;7.53;;;24.40;47.80;;;;;;5069355;28;21002;-54
2023/07/20 11:24:10;;;;;;;8.27;7.67;;;24.40;47.80;;;;;;5069445;28;20415;-51
2023/07/20 11:26:49;;;;;;;8.63;7.93;;;24.50;47.30;;;;;;5065963;28;20447;-52
2023/07/20 11:29:21;;;;;;;11.33;10.33;;;24.60;48.40;;;;;;5069638;28;20421;-52
2023/07/20 11:31:47;;;;;;;15.60;14.10;;;24.80;49.30;;;;;;5071792;28;20468;-53
2023/07/20 11:34:21;;;;;;;196.83;174.43;;;24.90;49.70;;;;;;5071585;28;20395;-54
2023/07/20 11:36:48;;;;;;;7.23;6.73;;;25.20;49.00;;;;;;5051583;28;20943;-52
2023/07/20 11:39:21;;;;;;;614.53;553.17;;;25.30;45.90;;;;;;5051343;28;20404;-53
2023/07/20 11:41:49;;;;;;;20.03;18.23;;;25.40;47.10;;;;;;5051386;28;20780;-51
2023/07/20 11:44:19;;;;;;;7.63;7.03;;;25.70;49.00;;;;;;5051668;28;20755;-53
2023/07/20 11:46:45;;;;;;;7.93;7.33;;;26.00;47.80;;;;;;5051297;28;20550;-51
2023/07/20 11:49:12;;;;;;;8.60;7.80;;;26.30;46.40;;;;;;5051378;28;20418;-53
2023/07/20 11:51:39;;;;;;;7.33;6.80;;;26.40;45.00;;;;;;5051114;28;20427;-51
2023/07/20 11:54:07;;;;;;;8.20;6.20;;;26.50;43.90;;;;;;5051373;28;20500;-51
2023/07/20 11:56:33;;;;;;;5.30;4.80;;;26.40;43.30;;;;;;5050217;28;21014;-54
2023/07/20 11:59:01;;;;;;;6.13;5.53;;;26.30;42.30;;;;;;5051230;28;20450;-54
2023/07/20 12:01:29;;;;;;;5.60;5.10;;;26.20;41.90;;;;;;5050980;28;20438;-51
2023/07/20 12:04:03;;;;;;;6.80;6.20;;;26.10;41.50;;;;;;5051453;28;20408;-51
2023/07/20 12:06:29;;;;;;;6.63;6.03;;;26.00;40.80;;;;;;5052966;28;20401;-53
2023/07/20 12:08:57;;;;;;;6.50;5.70;;;25.90;41.00;;;;;;5054721;28;20542;-51
2023/07/20 12:11:36;;;;;;;8.93;7.27;;;25.80;41.30;;;;;;5054430;28;20428;-50
2023/07/20 12:14:03;;;;;;;8.03;7.33;;;25.70;42.10;;;;;;5054648;28;20459;-50
2023/07/20 12:16:30;;;;;;;7.20;6.60;;;25.50;43.60;;;;;;5054868;28;20444;-53
2023/07/20 12:19:04;;;;;;;7.83;7.10;;;25.50;43.00;;;;;;5054550;28;20430;-53
2023/07/20 12:21:31;;;;;;;9.87;6.80;;;25.40;43.30;;;;;;5054441;28;20442;-52
2023/07/20 12:23:58;;;;;;;7.43;6.80;;;25.20;43.90;;;;;;5054405;28;20771;-53
2023/07/20 12:26:25;;;;;;;7.00;6.40;;;25.10;44.50;;;;;;5054410;28;20462;-49
2023/07/20 12:28:51;;;;;;;8.67;7.30;;;25.10;44.90;;;;;;5054612;28;20530;-53
2023/07/20 12:31:17;;;;;;;9.83;8.83;;;25.00;46.00;;;;;;5054188;28;20464;-50
2023/07/20 12:33:43;;;;;;;9.53;8.57;;;25.00;45.90;;;;;;5054290;28;20404;-53
2023/07/20 12:36:10;;;;;;;12.10;8.77;;;24.80;46.30;;;;;;5054324;28;20440;-53
2023/07/20 12:38:36;;;;;;;9.17;8.03;;;24.80;47.00;;;;;;5054195;28;20412;-51
2023/07/20 12:41:02;;;;;;;9.53;8.50;;;24.80;47.00;;;;;;5053801;28;20432;-51
2023/07/20 12:43:29;;;;;;;7.50;6.67;;;24.60;47.10;;;;;;5054314;28;20800;-53
2023/07/20 12:45:56;;;;;;;7.00;6.30;;;24.60;46.20;;;;;;5054093;28;20419;-51
2023/07/20 12:48:22;;;;;;;7.27;6.57;;;24.50;46.00;;;;;;5054059;28;20812;-52